Estación de Coihueco
Ultimos registro cada 15 minutos 81
| N° | Estación | Fecha / Hora | Temperatura | Humedad | Lluvia | Velocidad | Dirección | Radiación | Presion |
| 81 | Coihueco | 08-05-2026 20:00 | 7,6 | 98,7 | 0 | 0 | 222 | 0,6 | 996 |
| 80 | Coihueco | 08-05-2026 19:45 | 8,6 | 98,6 | 0 | 1 | 222 | 0,6 | 995,9 |
| 79 | Coihueco | 08-05-2026 19:30 | 9,2 | 98,1 | 0 | 1 | 226 | 0,6 | 995,8 |
| 78 | Coihueco | 08-05-2026 19:15 | 9,6 | 98,7 | 0 | 0,5 | 261 | 0,6 | 995,8 |
| 77 | Coihueco | 08-05-2026 19:00 | 9,3 | 98,2 | 0 | 0,5 | 267 | 0,6 | 995,5 |
| 76 | Coihueco | 08-05-2026 18:45 | 9,4 | 97,4 | 0 | 0,5 | 267 | 0,6 | 995,4 |
| 75 | Coihueco | 08-05-2026 18:30 | 10 | 97,4 | 0 | 0,5 | 267 | 0,6 | 995,4 |
| 74 | Coihueco | 08-05-2026 18:15 | 10 | 97,3 | 0 | 0 | 267 | 0,6 | 995,4 |
| 73 | Coihueco | 08-05-2026 18:00 | 10,2 | 96,6 | 0 | 0,5 | 267 | 0,6 | 995,3 |
| 72 | Coihueco | 08-05-2026 17:45 | 10,3 | 96,1 | 0 | 0,5 | 264 | 1,9 | 995,3 |
| 71 | Coihueco | 08-05-2026 17:30 | 10,4 | 95,7 | 0 | 0,5 | 250 | 8,1 | 995,3 |
| 70 | Coihueco | 08-05-2026 17:15 | 10,5 | 95,3 | 0 | 0 | 250 | 40,6 | 995,2 |
| 69 | Coihueco | 08-05-2026 17:00 | 10,7 | 95,1 | 0 | 0 | 250 | 25,6 | 995,1 |
| 68 | Coihueco | 08-05-2026 16:45 | 10,8 | 94,5 | 0 | 0,5 | 250 | 43,1 | 995,2 |
| 67 | Coihueco | 08-05-2026 16:30 | 10,7 | 94 | 0 | 0,5 | 250 | 29,4 | 995,2 |
| 66 | Coihueco | 08-05-2026 16:15 | 10,7 | 94,8 | 0 | 0 | 250 | 40,6 | 994,9 |
| 65 | Coihueco | 08-05-2026 16:00 | 10,7 | 95,1 | 0 | 0 | 250 | 39,4 | 995 |
| 64 | Coihueco | 08-05-2026 15:45 | 10,6 | 94,8 | 0 | 1 | 253 | 54,4 | 994,9 |
| 63 | Coihueco | 08-05-2026 15:30 | 10,7 | 94,4 | 0 | 0,5 | 288 | 34,4 | 994,8 |
| 62 | Coihueco | 08-05-2026 15:15 | 10,9 | 93,2 | 0 | 0 | 319 | 60,6 | 994,9 |
| 61 | Coihueco | 08-05-2026 15:00 | 10,8 | 92,9 | 0 | 0,5 | 352 | 79,4 | 994,8 |
| 60 | Coihueco | 08-05-2026 14:45 | 10,9 | 93,1 | 0 | 0,5 | 18 | 71,9 | 994,9 |
| 59 | Coihueco | 08-05-2026 14:30 | 11 | 93,3 | 0 | 0,5 | 17 | 69,4 | 994,8 |
| 58 | Coihueco | 08-05-2026 14:15 | 11 | 93,6 | 0 | 1 | 11 | 104,4 | 994,5 |
| 57 | Coihueco | 08-05-2026 14:00 | 11,2 | 94,2 | 0 | 0,5 | 6 | 149,4 | 994,8 |
| 56 | Coihueco | 08-05-2026 13:45 | 10,9 | 95,4 | 0 | 1 | 8 | 200,6 | 994,5 |
| 55 | Coihueco | 08-05-2026 13:30 | 11 | 95,4 | 0 | 1 | 18 | 163,1 | 994,9 |
| 54 | Coihueco | 08-05-2026 13:15 | 10,7 | 95,2 | 0 | 1 | 20 | 234,4 | 995 |
| 53 | Coihueco | 08-05-2026 13:00 | 10,3 | 96,1 | 0 | 0,5 | 341 | 178,1 | 995,3 |
| 52 | Coihueco | 08-05-2026 12:45 | 10,2 | 96,2 | 0,2 | 0 | 1 | 113,1 | 995,6 |
| 51 | Coihueco | 08-05-2026 12:30 | 10,3 | 95,1 | 0,2 | 0 | 10 | 146,9 | 995,6 |
| 50 | Coihueco | 08-05-2026 12:15 | 10,3 | 96,6 | 0,2 | 0,5 | 10 | 204,4 | 995,5 |
| 49 | Coihueco | 08-05-2026 12:00 | 10,1 | 95 | 0,2 | 1,5 | 22 | 146,9 | 995,6 |
| 48 | Coihueco | 08-05-2026 11:45 | 10,4 | 93,3 | 0 | 1,5 | 41 | 269,4 | 995,3 |
| 47 | Coihueco | 08-05-2026 11:30 | 10,1 | 93,8 | 0 | 1 | 42 | 204,4 | 995,5 |
| 46 | Coihueco | 08-05-2026 11:15 | 9,7 | 93,3 | 0 | 1 | 39 | 139,4 | 995,7 |
| 45 | Coihueco | 08-05-2026 11:00 | 9,5 | 95,6 | 0,2 | 1 | 42 | 136,9 | 995,9 |
| 44 | Coihueco | 08-05-2026 10:45 | 9,1 | 95,3 | 0 | 1 | 34 | 99,4 | 995,6 |
| 43 | Coihueco | 08-05-2026 10:30 | 9,1 | 95 | 0 | 1,5 | 46 | 136,9 | 995,7 |
| 42 | Coihueco | 08-05-2026 10:15 | 8,6 | 95,7 | 0 | 1,5 | 46 | 86,9 | 996,1 |
| 41 | Coihueco | 08-05-2026 10:00 | 8,7 | 96,5 | 0,2 | 0,5 | 11 | 116,9 | 996,2 |
| 40 | Coihueco | 08-05-2026 09:45 | 8,6 | 97,3 | 0 | 0 | 358 | 55,6 | 996,5 |
| 39 | Coihueco | 08-05-2026 09:30 | 8,5 | 97,5 | 0 | 0 | 358 | 69,4 | 996,2 |
| 38 | Coihueco | 08-05-2026 09:15 | 8,3 | 97,7 | 0,4 | 0 | 7 | 66,9 | 996,4 |
| 37 | Coihueco | 08-05-2026 09:00 | 8,3 | 95,8 | 0 | 0 | 70 | 26,9 | 996,6 |
| 36 | Coihueco | 08-05-2026 08:45 | 8,4 | 95,7 | 0 | 0 | 72 | 30,6 | 996,4 |
| 35 | Coihueco | 08-05-2026 08:30 | 8,2 | 95,6 | 0 | 0 | 74 | 21,9 | 996 |
| 34 | Coihueco | 08-05-2026 08:15 | 8,1 | 94,8 | 0 | 0 | 76 | 23,1 | 995,7 |
| 33 | Coihueco | 08-05-2026 08:00 | 8,1 | 94,8 | 0 | 0 | 84 | 8,1 | 995,8 |
| 32 | Coihueco | 08-05-2026 07:45 | 8,4 | 92,7 | 0 | 0 | 100 | 0,6 | 995,8 |
| 31 | Coihueco | 08-05-2026 07:30 | 8,6 | 89,2 | 0 | 0,5 | 107 | 0,6 | 995,6 |
| 30 | Coihueco | 08-05-2026 07:15 | 8,2 | 91,7 | 0 | 0,5 | 31 | 0,6 | 995,5 |
| 29 | Coihueco | 08-05-2026 07:00 | 7,4 | 97,6 | 0 | 0 | 1 | 0,6 | 995,7 |
| 28 | Coihueco | 08-05-2026 06:45 | 7,2 | 97,9 | 0 | 0 | 1 | 0,6 | 996 |
| 27 | Coihueco | 08-05-2026 06:30 | 7,1 | 98,6 | 0 | 0 | 1 | 0,6 | 996,3 |
| 26 | Coihueco | 08-05-2026 06:15 | 7,2 | 98,5 | 0,2 | 0 | 1 | 0,6 | 996,6 |
| 25 | Coihueco | 08-05-2026 06:00 | 7,3 | 97,5 | 0 | 0 | 1 | 0,6 | 996,6 |
| 24 | Coihueco | 08-05-2026 05:45 | 7,2 | 97,2 | 0 | 0 | 65 | 0,6 | 996,7 |
| 23 | Coihueco | 08-05-2026 05:30 | 7,3 | 97,2 | 0 | 0 | 67 | 0,6 | 996,6 |
| 22 | Coihueco | 08-05-2026 05:15 | 7,1 | 97,2 | 0 | 0 | 67 | 0,6 | 996,7 |
| 21 | Coihueco | 08-05-2026 05:00 | 7,2 | 96,8 | 0 | 0 | 67 | 0,6 | 996,8 |
| 20 | Coihueco | 08-05-2026 04:45 | 7,3 | 94,1 | 0 | 0 | 79 | 0,6 | 996,8 |
| 19 | Coihueco | 08-05-2026 04:30 | 7,2 | 95,5 | 0 | 0,5 | 146 | 0,6 | 996,7 |
| 18 | Coihueco | 08-05-2026 04:15 | 7 | 97,5 | 0 | 0 | 185 | 0,6 | 996,9 |
| 17 | Coihueco | 08-05-2026 04:00 | 7 | 98,1 | 0 | 0 | 185 | 0,6 | 997,2 |
| 16 | Coihueco | 08-05-2026 03:45 | 7,1 | 98,1 | 0 | 0 | 185 | 0,6 | 997,3 |
| 15 | Coihueco | 08-05-2026 03:30 | 7,1 | 97,9 | 0 | 0 | 185 | 0,6 | 997,2 |
| 14 | Coihueco | 08-05-2026 03:15 | 7,1 | 97,8 | 0 | 0 | 178 | 0,6 | 997,8 |
| 13 | Coihueco | 08-05-2026 03:00 | 7 | 98 | 0 | 0 | 143 | 0,6 | 997,4 |
| 12 | Coihueco | 08-05-2026 02:45 | 7 | 98,1 | 0 | 0 | 143 | 0,6 | 997,7 |
| 11 | Coihueco | 08-05-2026 02:30 | 7 | 98 | 0 | 0 | 143 | 0,6 | 998 |
| 10 | Coihueco | 08-05-2026 02:15 | 6,9 | 98 | 0 | 0 | 143 | 0,6 | 998,4 |
| 9 | Coihueco | 08-05-2026 02:00 | 6,9 | 97,8 | 0 | 0 | 143 | 0,6 | 998,8 |
| 8 | Coihueco | 08-05-2026 01:45 | 7 | 97 | 0 | 0 | 143 | 0,6 | 998,9 |
| 7 | Coihueco | 08-05-2026 01:30 | 6,9 | 98,2 | 0 | 0 | 146 | 0,6 | 998,9 |
| 6 | Coihueco | 08-05-2026 01:15 | 6,8 | 98,6 | 0 | 0 | 150 | 0,6 | 998,9 |
| 5 | Coihueco | 08-05-2026 01:00 | 6,6 | 98,7 | 0 | 0 | 150 | 0,6 | 999,1 |
| 4 | Coihueco | 08-05-2026 00:45 | 6,8 | 98,7 | 0 | 0 | 150 | 0,6 | 999,4 |
| 3 | Coihueco | 08-05-2026 00:30 | 6,7 | 98,3 | 0 | 0 | 150 | 0,6 | 999,6 |
| 2 | Coihueco | 08-05-2026 00:15 | 6,8 | 98,3 | 0 | 0 | 150 | 0,6 | 999,6 |
| 1 | Coihueco | 08-05-2026 00:00 | 6,9 | 97,9 | 0 | 0 | 150 | 0,6 | 999,7 |